createdAt,value
2023-04-02T00:00:10.682Z,1.20
2023-04-02T00:01:43.223Z,1.30
2023-04-02T00:02:22.343Z,1.40
2023-04-02T00:02:58.825Z,1.20
2023-04-02T00:03:59.690Z,1.30
2023-04-02T00:04:38.338Z,1.20
2023-04-02T00:05:18.596Z,1.30
2023-04-02T00:05:52.178Z,1.20
2023-04-02T00:06:33.219Z,1.10
2023-04-02T00:08:18.357Z,1.00
2023-04-02T00:08:54.575Z,1.20
2023-04-02T00:09:36.926Z,1.10
2023-04-02T00:10:35.805Z,1.40
2023-04-02T00:11:10.456Z,1.20
2023-04-02T00:11:48.740Z,1.20
2023-04-02T00:12:22.323Z,1.30
2023-04-02T00:13:10.747Z,1.30
2023-04-02T00:13:49.378Z,1.20
2023-04-02T00:14:22.746Z,1.30
2023-04-02T00:14:58.255Z,1.30
2023-04-02T00:15:34.574Z,1.40
2023-04-02T00:16:15.797Z,1.30
2023-04-02T00:16:53.123Z,1.10
2023-04-02T00:17:26.937Z,1.40
2023-04-02T00:18:01.996Z,1.30
2023-04-02T00:18:42.819Z,1.20
2023-04-02T00:19:25.910Z,1.40
2023-04-02T00:20:09.338Z,1.40
2023-04-02T00:20:47.050Z,1.40
2023-04-02T00:21:26.852Z,1.30
2023-04-02T00:22:02.354Z,1.40
2023-04-02T00:22:35.835Z,1.40
2023-04-02T00:23:14.588Z,1.30
2023-04-02T00:23:48.733Z,1.30
2023-04-02T00:24:22.612Z,1.20
2023-04-02T00:24:57.227Z,1.50
2023-04-02T00:25:36.734Z,1.30
2023-04-02T00:26:37.780Z,1.40
2023-04-02T00:27:14.015Z,1.30
2023-04-02T00:27:47.987Z,1.40
2023-04-02T00:28:23.507Z,1.30
2023-04-02T00:28:57.809Z,1.20
2023-04-02T00:29:31.341Z,1.40
2023-04-02T00:30:05.464Z,1.50
2023-04-02T00:30:46.179Z,1.40
2023-04-02T00:31:21.087Z,1.60
2023-04-02T00:31:55.512Z,1.50
2023-04-02T00:32:33.336Z,1.50
2023-04-02T00:33:15.930Z,1.50
2023-04-02T00:33:50.505Z,1.40
2023-04-02T00:34:33.164Z,1.40
2023-04-02T00:35:22.967Z,1.50
2023-04-02T00:35:56.989Z,1.30
2023-04-02T00:36:36.159Z,1.30
2023-04-02T00:37:18.602Z,1.40
2023-04-02T00:37:52.122Z,1.30
2023-04-02T00:38:28.648Z,1.40
2023-04-02T00:39:05.141Z,1.40
2023-04-02T00:39:42.554Z,1.50
2023-04-02T00:40:20.077Z,1.30
2023-04-02T00:40:58.888Z,1.60
2023-04-02T00:41:36.299Z,1.30
2023-04-02T00:42:12.868Z,1.40
2023-04-02T00:42:48.443Z,1.40
2023-04-02T00:43:28.868Z,1.50
2023-04-02T00:44:02.947Z,1.30
2023-04-02T00:44:44.671Z,1.30
2023-04-02T00:45:29.078Z,1.40
2023-04-02T00:46:11.172Z,1.30
2023-04-02T00:46:49.961Z,1.30
2023-04-02T00:47:27.863Z,1.30
2023-04-02T00:48:21.155Z,1.30
2023-04-02T00:49:11.200Z,1.50
2023-04-02T00:49:44.973Z,1.10
2023-04-02T00:50:50.242Z,1.30
2023-04-02T00:51:29.630Z,1.30
2023-04-02T00:52:08.211Z,1.30
2023-04-02T00:52:45.430Z,1.40
2023-04-02T00:53:28.777Z,1.30
2023-04-02T00:54:06.831Z,1.60
2023-04-02T00:54:48.910Z,1.30
2023-04-02T00:55:27.807Z,1.20
2023-04-02T00:56:03.538Z,1.40
2023-04-02T00:56:44.533Z,1.50
2023-04-02T00:57:25.819Z,1.40
2023-04-02T00:58:04.673Z,1.50
2023-04-02T00:58:38.604Z,1.50
2023-04-02T00:59:32.331Z,1.60
2023-04-02T01:00:14.554Z,1.40
2023-04-02T01:00:52.299Z,1.40
2023-04-02T01:01:29.771Z,1.60
2023-04-02T01:02:17.553Z,1.30
2023-04-02T01:03:13.364Z,1.40
2023-04-02T01:04:05.985Z,1.40
2023-04-02T01:04:39.700Z,1.70
2023-04-02T01:05:16.969Z,1.60
2023-04-02T01:05:56.553Z,1.70
2023-04-02T01:06:35.872Z,1.40
2023-04-02T01:07:12.402Z,1.50
2023-04-02T01:08:13.318Z,1.40
2023-04-02T01:09:07.749Z,1.60
2023-04-02T01:10:07.737Z,1.40
2023-04-02T01:11:04.352Z,1.60
2023-04-02T01:12:20.251Z,1.40
2023-04-02T01:13:16.415Z,1.80
2023-04-02T01:14:13.269Z,1.40
2023-04-02T01:15:25.426Z,1.40
2023-04-02T01:16:26.065Z,1.30
2023-04-02T01:17:26.681Z,1.50
2023-04-02T01:18:19.846Z,1.70
2023-04-02T01:19:08.978Z,2.00
2023-04-02T01:20:01.738Z,1.50
2023-04-02T01:20:35.324Z,1.50
2023-04-02T01:21:23.320Z,1.60
2023-04-02T01:22:18.643Z,1.50
2023-04-02T01:23:25.954Z,1.70
2023-04-02T01:24:02.144Z,1.30
2023-04-02T01:24:39.269Z,1.40
2023-04-02T01:25:19.244Z,1.50
2023-04-02T01:26:19.952Z,1.70
2023-04-02T01:26:58.152Z,1.70
2023-04-02T01:27:48.167Z,1.70
2023-04-02T01:28:35.519Z,1.50
2023-04-02T01:29:16.814Z,1.50
2023-04-02T01:29:59.540Z,1.70
2023-04-02T01:30:36.854Z,1.60
2023-04-02T01:31:11.293Z,1.70
2023-04-02T01:31:47.378Z,1.70
2023-04-02T01:32:23.644Z,1.80
2023-04-02T01:32:57.137Z,1.80
2023-04-02T01:33:34.449Z,1.70
2023-04-02T01:34:12.315Z,1.80
2023-04-02T01:34:50.891Z,1.80
2023-04-02T01:35:28.232Z,1.60
2023-04-02T01:36:23.700Z,1.80
2023-04-02T01:37:23.305Z,1.80
2023-04-02T01:38:14.521Z,1.90
2023-04-02T01:39:02.432Z,1.80
2023-04-02T01:39:51.104Z,1.90
2023-04-02T01:40:45.922Z,1.80
2023-04-02T01:41:36.620Z,1.60
2023-04-02T01:42:17.654Z,1.60
2023-04-02T01:43:12.123Z,1.90
2023-04-02T01:43:58.609Z,1.60
2023-04-02T01:44:50.965Z,1.70
2023-04-02T01:45:25.390Z,1.90
2023-04-02T01:46:00.148Z,2.00
2023-04-02T01:46:35.894Z,2.00
2023-04-02T01:47:15.724Z,2.10
2023-04-02T01:47:50.389Z,1.90
2023-04-02T01:48:30.752Z,1.70
2023-04-02T01:51:31.793Z,1.80
2023-04-02T01:52:06.669Z,2.00
2023-04-02T01:52:43.729Z,1.80
2023-04-02T01:53:21.451Z,2.00
2023-04-02T01:53:56.843Z,2.00
2023-04-02T01:54:30.517Z,1.80
2023-04-02T01:55:05.803Z,1.90
2023-04-02T01:55:54.377Z,1.90
2023-04-02T01:56:30.738Z,1.90
2023-04-02T01:57:06.278Z,2.10
2023-04-02T01:57:46.329Z,1.90
2023-04-02T01:58:25.786Z,1.80
2023-04-02T01:59:00.765Z,1.90
2023-04-02T01:59:36.024Z,2.00
2023-04-02T02:00:17.198Z,1.90
2023-04-02T02:00:58.168Z,2.00
2023-04-02T02:01:43.980Z,1.90
2023-04-02T02:02:18.001Z,1.80
2023-04-02T02:02:52.286Z,1.90
2023-04-02T02:03:26.390Z,2.10
2023-04-02T02:04:02.306Z,1.90
2023-04-02T02:04:36.203Z,2.00
2023-04-02T02:05:15.960Z,2.00
2023-04-02T02:05:51.501Z,1.70
2023-04-02T02:06:25.311Z,1.60
2023-04-02T02:07:01.006Z,1.90
2023-04-02T02:07:34.762Z,2.10
2023-04-02T02:08:23.141Z,2.00
2023-04-02T02:09:04.008Z,1.90
2023-04-02T02:10:17.934Z,1.80
2023-04-02T02:10:51.777Z,1.90
2023-04-02T02:11:29.098Z,1.80
2023-04-02T02:12:04.554Z,1.90
2023-04-02T02:12:38.552Z,2.00
2023-04-02T02:13:16.204Z,1.90
2023-04-02T02:14:09.837Z,1.90
2023-04-02T02:14:48.161Z,1.90
2023-04-02T02:15:23.853Z,1.90
2023-04-02T02:15:59.451Z,2.10
2023-04-02T02:16:42.091Z,2.10
2023-04-02T02:17:19.487Z,1.90
2023-04-02T02:17:59.641Z,2.10
2023-04-02T02:18:33.880Z,2.10
2023-04-02T02:19:11.356Z,2.00
2023-04-02T02:19:52.834Z,2.10
2023-04-02T02:20:28.425Z,2.00
2023-04-02T02:21:07.877Z,1.80
2023-04-02T02:22:14.694Z,2.00
2023-04-02T02:22:51.563Z,1.90
2023-04-02T02:23:25.785Z,1.90
2023-04-02T02:24:02.215Z,2.20
2023-04-02T02:24:37.405Z,1.70
2023-04-02T02:25:32.896Z,2.30
2023-04-02T02:26:07.607Z,2.00
2023-04-02T02:26:43.201Z,1.80
2023-04-02T02:27:25.646Z,2.00
2023-04-02T02:28:15.578Z,2.00
2023-04-02T02:28:54.634Z,1.80
2023-04-02T02:29:30.488Z,1.90
2023-04-02T02:30:07.792Z,2.40
2023-04-02T02:30:48.626Z,1.70
2023-04-02T02:31:29.795Z,2.00
2023-04-02T02:32:07.330Z,2.00
2023-04-02T02:32:53.053Z,1.90
2023-04-02T02:33:37.236Z,1.80
2023-04-02T02:34:21.318Z,2.00
2023-04-02T02:35:04.517Z,1.80
2023-04-02T02:35:54.978Z,2.00
2023-04-02T02:36:40.329Z,1.80
2023-04-02T02:37:23.343Z,2.20
2023-04-02T02:38:10.695Z,1.80
2023-04-02T02:38:49.997Z,1.90
2023-04-02T02:39:38.087Z,1.70
2023-04-02T02:40:29.154Z,2.70
2023-04-02T02:41:27.582Z,2.10
2023-04-02T02:42:03.106Z,2.00
2023-04-02T02:42:44.600Z,2.00
2023-04-02T02:43:18.760Z,2.20
2023-04-02T02:44:26.951Z,2.00
2023-04-02T02:45:06.610Z,2.00
2023-04-02T02:45:42.156Z,1.90
2023-04-02T02:46:21.000Z,1.90
2023-04-02T02:46:59.748Z,1.90
2023-04-02T02:47:42.477Z,2.00
2023-04-02T02:48:23.057Z,1.80
2023-04-02T02:48:59.791Z,2.30
2023-04-02T02:49:38.362Z,2.00
2023-04-02T02:50:22.709Z,2.10
2023-04-02T02:50:57.222Z,2.00
2023-04-02T02:51:44.613Z,2.10
2023-04-02T02:52:23.128Z,1.90
2023-04-02T02:53:17.882Z,1.80
2023-04-02T02:53:56.000Z,1.90
2023-04-02T02:54:32.383Z,2.10
2023-04-02T02:55:22.842Z,1.90
2023-04-02T02:56:11.185Z,1.90
2023-04-02T02:56:53.568Z,1.80
2023-04-02T02:57:33.840Z,1.80
2023-04-02T02:58:15.912Z,1.90
2023-04-02T02:59:02.073Z,2.20
2023-04-02T02:59:41.158Z,2.10
2023-04-02T03:00:19.681Z,1.60
2023-04-02T03:00:54.083Z,1.90
2023-04-02T03:01:31.385Z,2.10
2023-04-02T03:02:09.942Z,2.00
2023-04-02T03:02:45.034Z,2.10
2023-04-02T03:03:28.507Z,1.90
2023-04-02T03:04:04.877Z,2.10
2023-04-02T03:04:39.063Z,2.20
2023-04-02T03:05:22.406Z,2.20
2023-04-02T03:06:17.582Z,2.00
2023-04-02T03:06:54.076Z,1.70
2023-04-02T03:07:30.560Z,1.90
2023-04-02T03:08:11.164Z,2.20
2023-04-02T03:08:52.474Z,2.30
2023-04-02T03:09:42.580Z,1.90
2023-04-02T03:10:31.669Z,2.00
2023-04-02T03:11:19.978Z,2.10
2023-04-02T03:12:06.856Z,1.90
2023-04-02T03:12:53.671Z,2.00
2023-04-02T03:13:35.798Z,1.90
2023-04-02T03:14:27.457Z,1.70
2023-04-02T03:15:08.540Z,1.90
2023-04-02T03:15:48.003Z,1.90
2023-04-02T03:16:31.788Z,1.90
2023-04-02T03:17:17.384Z,1.90
2023-04-02T03:17:51.681Z,1.70
2023-04-02T03:18:45.677Z,1.90
2023-04-02T03:19:33.806Z,1.80
2023-04-02T03:20:27.536Z,1.70
2023-04-02T03:21:28.878Z,1.60
2023-04-02T03:22:14.981Z,1.70
2023-04-02T03:23:03.523Z,1.60
2023-04-02T03:23:42.518Z,1.80
2023-04-02T03:24:35.050Z,1.70
2023-04-02T03:25:30.500Z,1.70
2023-04-02T03:26:25.243Z,1.70
2023-04-02T03:27:39.686Z,1.80
2023-04-02T03:28:20.102Z,1.90
2023-04-02T03:29:05.334Z,1.70
2023-04-02T03:29:49.762Z,1.30
2023-04-02T03:30:50.527Z,2.00
2023-04-02T03:31:40.190Z,2.00
2023-04-02T03:32:29.122Z,1.90
2023-04-02T03:33:30.317Z,1.80
2023-04-02T03:35:20.302Z,1.70
2023-04-02T03:35:57.303Z,1.70
2023-04-02T03:36:38.547Z,1.90
2023-04-02T03:37:21.481Z,1.80
2023-04-02T03:38:01.300Z,1.80
2023-04-02T03:38:41.386Z,1.80
2023-04-02T03:39:24.610Z,1.80
2023-04-02T03:40:16.070Z,1.90
2023-04-02T03:41:19.379Z,2.10
2023-04-02T03:42:08.358Z,2.00
2023-04-02T03:42:56.435Z,1.90
2023-04-02T03:43:56.169Z,1.90
2023-04-02T03:44:44.684Z,1.90
2023-04-02T03:45:23.178Z,1.80
2023-04-02T03:46:05.525Z,1.90
2023-04-02T03:46:45.253Z,1.90
2023-04-02T03:47:34.770Z,1.80
2023-04-02T03:48:18.658Z,2.50
2023-04-02T03:48:59.257Z,1.60
2023-04-02T03:49:41.644Z,1.70
2023-04-02T03:50:27.315Z,1.80
2023-04-02T03:51:05.634Z,1.80
2023-04-02T03:51:55.704Z,2.00
2023-04-02T03:52:30.649Z,1.90
2023-04-02T03:53:06.218Z,1.80
2023-04-02T03:53:40.087Z,2.00
2023-04-02T03:54:17.050Z,1.70
2023-04-02T03:54:54.100Z,1.80
2023-04-02T03:55:35.969Z,1.80
2023-04-02T03:56:19.550Z,1.80
2023-04-02T03:56:53.939Z,1.80
2023-04-02T03:57:37.122Z,1.70
2023-04-02T03:58:25.910Z,1.90
2023-04-02T03:59:24.997Z,1.80
2023-04-02T04:00:08.623Z,1.80
2023-04-02T04:00:53.771Z,1.60
2023-04-02T04:01:35.678Z,1.80
2023-04-02T04:02:27.698Z,1.70
2023-04-02T04:03:14.855Z,1.80
2023-04-02T04:03:53.577Z,1.90
2023-04-02T04:04:32.021Z,1.80
2023-04-02T04:05:14.709Z,1.60
2023-04-02T04:06:14.678Z,2.10
2023-04-02T04:06:52.581Z,1.90
2023-04-02T04:07:34.981Z,1.80
2023-04-02T04:08:25.451Z,1.70
2023-04-02T04:09:40.477Z,1.70
2023-04-02T04:10:26.017Z,1.90
2023-04-02T04:11:09.161Z,1.90
2023-04-02T04:11:50.010Z,1.60
2023-04-02T04:12:36.304Z,1.70
2023-04-02T04:13:18.371Z,1.80
2023-04-02T04:14:01.387Z,1.60
2023-04-02T04:14:44.101Z,1.90
2023-04-02T04:16:03.368Z,1.40
2023-04-02T04:16:53.911Z,1.70
2023-04-02T04:17:40.672Z,1.80
2023-04-02T04:18:35.187Z,1.80
2023-04-02T04:19:35.416Z,1.60
2023-04-02T04:20:22.810Z,1.70
2023-04-02T04:21:03.353Z,1.60
2023-04-02T04:21:45.440Z,1.80
2023-04-02T04:22:34.185Z,1.90
2023-04-02T04:23:20.207Z,1.80
2023-04-02T04:23:53.716Z,1.80
2023-04-02T04:24:28.120Z,2.10
2023-04-02T04:25:07.722Z,2.00
2023-04-02T04:25:42.280Z,1.90
2023-04-02T04:26:56.385Z,2.00
2023-04-02T04:27:47.127Z,1.80
2023-04-02T04:29:13.220Z,1.80
2023-04-02T04:30:20.650Z,1.30
2023-04-02T04:31:09.529Z,1.70
2023-04-02T04:32:11.261Z,1.70
2023-04-02T04:32:50.594Z,1.80
2023-04-02T04:33:50.861Z,1.90
2023-04-02T04:34:42.663Z,1.80
2023-04-02T04:35:25.235Z,1.70
2023-04-02T04:36:04.129Z,1.70
2023-04-02T04:36:54.668Z,1.90
2023-04-02T04:38:27.939Z,1.70
2023-04-02T04:39:14.817Z,1.30
2023-04-02T04:39:58.608Z,1.60
2023-04-02T04:40:38.337Z,1.80
2023-04-02T04:41:16.943Z,1.60
2023-04-02T04:41:54.728Z,1.70
2023-04-02T04:42:32.550Z,1.80
2023-04-02T04:43:16.289Z,1.50
2023-04-02T04:44:01.354Z,1.60
2023-04-02T04:45:08.063Z,1.60
2023-04-02T04:45:47.987Z,1.70
2023-04-02T04:46:35.755Z,1.70
2023-04-02T04:47:19.401Z,1.60
2023-04-02T04:48:09.430Z,1.60
2023-04-02T04:48:53.109Z,1.80
2023-04-02T04:49:50.949Z,1.60
2023-04-02T04:50:31.414Z,1.70
2023-04-02T04:54:00.867Z,1.40
2023-04-02T04:54:38.697Z,1.70
2023-04-02T04:55:31.177Z,1.70
2023-04-02T04:56:18.524Z,1.60
2023-04-02T04:57:03.537Z,1.80
2023-04-02T04:57:41.786Z,1.70
2023-04-02T04:58:34.663Z,1.90
2023-04-02T04:59:28.959Z,1.70
2023-04-02T05:00:17.897Z,1.70
2023-04-02T05:01:22.244Z,1.60
2023-04-02T05:02:06.976Z,1.60
2023-04-02T05:03:09.577Z,1.80
2023-04-02T05:04:04.228Z,1.30
2023-04-02T05:04:40.592Z,1.50
2023-04-02T05:05:29.960Z,1.40
2023-04-02T05:06:39.221Z,1.70
2023-04-02T05:07:36.855Z,1.40
2023-04-02T05:08:22.812Z,1.40
2023-04-02T05:09:00.698Z,1.60
2023-04-02T05:10:50.559Z,1.90
2023-04-02T05:11:47.560Z,1.40
2023-04-02T05:12:42.650Z,1.60
2023-04-02T05:13:28.875Z,1.40
2023-04-02T05:14:14.110Z,1.60
2023-04-02T05:14:54.528Z,1.70
2023-04-02T05:15:46.031Z,1.40
2023-04-02T05:16:22.995Z,1.60
2023-04-02T05:17:16.358Z,1.50
2023-04-02T05:18:11.896Z,1.50
2023-04-02T05:19:19.575Z,1.60
2023-04-02T05:20:37.555Z,1.50
2023-04-02T05:21:16.949Z,1.50
2023-04-02T05:22:28.858Z,1.40
2023-04-02T05:23:15.731Z,1.70
2023-04-02T05:24:00.224Z,1.70
2023-04-02T05:24:48.882Z,1.70
2023-04-02T05:25:23.969Z,1.60
2023-04-02T05:26:24.816Z,1.80
2023-04-02T05:27:03.115Z,1.70
2023-04-02T05:30:06.886Z,1.60
2023-04-02T05:31:03.483Z,1.40
2023-04-02T05:31:47.401Z,1.60
2023-04-02T05:32:37.005Z,1.90
2023-04-02T05:33:31.437Z,1.80
2023-04-02T05:34:07.513Z,1.60
2023-04-02T05:34:45.940Z,1.80
2023-04-02T05:35:23.987Z,1.80
2023-04-02T05:36:07.109Z,1.70
2023-04-02T05:36:47.050Z,1.70
2023-04-02T05:37:23.588Z,1.70
2023-04-02T05:37:58.270Z,1.60
2023-04-02T05:38:37.245Z,2.20
2023-04-02T05:39:11.830Z,1.80
2023-04-02T05:40:41.793Z,1.80
2023-04-02T05:41:38.634Z,1.60
2023-04-02T05:42:20.847Z,1.70
2023-04-02T05:43:00.692Z,1.80
2023-04-02T05:43:39.165Z,1.70
2023-04-02T05:44:17.816Z,1.60
2023-04-02T05:45:04.154Z,1.60
2023-04-02T05:45:41.850Z,1.60
2023-04-02T05:46:25.948Z,1.90
2023-04-02T05:47:08.346Z,1.70
2023-04-02T05:47:44.844Z,1.80
2023-04-02T05:48:30.332Z,1.80
2023-04-02T05:49:09.588Z,1.80
2023-04-02T05:49:47.238Z,1.70
2023-04-02T05:50:37.799Z,1.70
2023-04-02T05:51:31.520Z,1.90
2023-04-02T05:52:12.382Z,1.80
2023-04-02T05:52:52.140Z,1.50
2023-04-02T05:53:33.299Z,1.70
2023-04-02T05:54:23.490Z,1.60
2023-04-02T05:55:59.881Z,1.60
2023-04-02T05:56:44.333Z,1.60
2023-04-02T05:57:39.461Z,1.70
2023-04-02T05:59:12.667Z,1.70
2023-04-02T05:59:57.541Z,1.60
2023-04-02T06:00:40.254Z,1.70
2023-04-02T06:01:19.095Z,1.70
2023-04-02T06:01:56.330Z,1.70
2023-04-02T06:02:43.020Z,1.60
2023-04-02T06:03:40.124Z,1.80
2023-04-02T06:04:23.235Z,1.60
2023-04-02T06:05:20.638Z,1.80
2023-04-02T06:05:59.893Z,1.50
2023-04-02T06:07:08.486Z,1.50
2023-04-02T06:08:01.844Z,1.50
2023-04-02T06:08:46.082Z,1.50
2023-04-02T06:09:23.472Z,1.70
2023-04-02T06:10:09.699Z,1.60
2023-04-02T06:10:54.984Z,1.50
2023-04-02T06:11:37.780Z,1.30
2023-04-02T06:12:25.107Z,1.40
2023-04-02T06:13:04.494Z,1.40
2023-04-02T06:13:42.584Z,1.70
2023-04-02T06:14:17.812Z,1.50
2023-04-02T06:14:52.998Z,1.60
2023-04-02T06:16:06.785Z,1.40
2023-04-02T06:16:41.887Z,1.50
2023-04-02T06:17:18.356Z,1.60
2023-04-02T06:18:31.697Z,1.60
2023-04-02T06:19:32.545Z,1.30
2023-04-02T06:20:07.133Z,1.40
2023-04-02T06:20:41.355Z,1.40
2023-04-02T06:21:18.599Z,1.50
2023-04-02T06:22:01.070Z,1.70
2023-04-02T06:22:40.283Z,1.70
2023-04-02T06:23:31.168Z,1.60
2023-04-02T06:24:11.930Z,1.60
2023-04-02T06:24:49.512Z,1.30
2023-04-02T06:25:34.518Z,1.30
2023-04-02T06:26:17.533Z,1.50
2023-04-02T06:26:58.134Z,1.60
2023-04-02T06:27:34.321Z,1.70
2023-04-02T06:28:16.427Z,1.50
2023-04-02T06:29:06.313Z,1.40
2023-04-02T06:29:45.418Z,1.50
2023-04-02T06:30:28.914Z,1.40
2023-04-02T06:31:12.521Z,1.40
2023-04-02T06:31:52.676Z,1.20
2023-04-02T06:32:27.995Z,1.50
2023-04-02T06:33:03.206Z,1.40
2023-04-02T06:33:37.807Z,1.40
2023-04-02T06:34:18.670Z,1.40
2023-04-02T06:35:16.345Z,1.40
2023-04-02T06:35:55.500Z,1.20
2023-04-02T06:36:34.488Z,1.30
2023-04-02T06:37:24.524Z,1.10
2023-04-02T06:38:07.532Z,1.40
2023-04-02T06:38:44.252Z,1.30
2023-04-02T06:39:24.062Z,1.40
2023-04-02T06:39:59.756Z,1.40
2023-04-02T06:40:53.400Z,1.40
2023-04-02T06:42:38.024Z,1.40
2023-04-02T06:43:50.195Z,1.40
2023-04-02T06:44:59.817Z,1.10
2023-04-02T06:47:28.525Z,1.00
2023-04-02T06:48:03.973Z,1.10
2023-04-02T06:48:51.945Z,1.10
2023-04-02T06:49:35.821Z,1.30
2023-04-02T06:50:18.583Z,1.10
2023-04-02T06:51:34.244Z,1.10
2023-04-02T06:52:31.624Z,1.10
2023-04-02T06:53:12.128Z,1.10
2023-04-02T06:53:48.489Z,1.10
2023-04-02T06:54:23.316Z,1.30
2023-04-02T06:55:07.896Z,1.30
2023-04-02T06:56:01.471Z,1.20
2023-04-02T06:56:51.024Z,1.00
2023-04-02T06:57:43.627Z,1.10
2023-04-02T06:58:19.107Z,1.10
2023-04-02T06:58:52.717Z,1.10
2023-04-02T06:59:27.485Z,1.30
2023-04-02T07:00:02.231Z,1.30
2023-04-02T07:00:42.855Z,1.20
2023-04-02T07:01:24.331Z,1.30
2023-04-02T07:02:32.159Z,1.20
2023-04-02T07:03:15.045Z,1.00
2023-04-02T07:03:48.682Z,1.10
2023-04-02T07:04:30.322Z,1.30
2023-04-02T07:05:09.527Z,1.30
2023-04-02T07:05:49.571Z,1.10
2023-04-02T07:06:23.463Z,1.10
2023-04-02T07:06:59.013Z,1.30
2023-04-02T07:07:35.817Z,1.10
2023-04-02T07:08:11.404Z,1.20
2023-04-02T07:08:45.445Z,1.20
2023-04-02T07:09:19.458Z,1.10
2023-04-02T07:09:56.673Z,1.30
2023-04-02T07:10:30.654Z,1.10
2023-04-02T07:11:04.082Z,1.10
2023-04-02T07:11:37.910Z,1.20
2023-04-02T07:12:13.827Z,1.10
2023-04-02T07:12:48.566Z,1.00
2023-04-02T07:13:24.596Z,1.10
2023-04-02T07:13:58.356Z,1.00
2023-04-02T07:14:32.632Z,1.10
2023-04-02T07:15:06.916Z,1.30
2023-04-02T07:15:42.390Z,1.10
2023-04-02T07:16:27.733Z,1.20
2023-04-02T07:17:01.559Z,1.20
2023-04-02T07:17:35.046Z,1.00
2023-04-02T07:18:22.222Z,1.20
2023-04-02T07:18:56.333Z,1.20
2023-04-02T07:19:30.242Z,1.10
2023-04-02T07:20:06.433Z,1.10
2023-04-02T07:20:41.865Z,1.10
2023-04-02T07:21:18.629Z,1.10
2023-04-02T07:21:52.565Z,1.00
2023-04-02T07:22:27.351Z,1.20
2023-04-02T07:23:04.680Z,1.10
2023-04-02T07:23:38.381Z,1.10
2023-04-02T07:24:12.073Z,1.10
2023-04-02T07:24:46.530Z,1.10
2023-04-02T07:25:20.084Z,1.00
2023-04-02T07:25:55.461Z,1.10
2023-04-02T07:26:29.041Z,1.10
2023-04-02T07:27:02.872Z,0.90
2023-04-02T07:27:36.538Z,1.00
2023-04-02T07:28:09.998Z,1.10
2023-04-02T07:28:44.025Z,1.00
2023-04-02T07:29:17.701Z,1.00
2023-04-02T07:29:51.293Z,1.00
2023-04-02T07:30:24.882Z,1.00
2023-04-02T07:30:58.414Z,1.00
2023-04-02T07:31:32.032Z,0.90
2023-04-02T07:32:06.246Z,1.10
2023-04-02T07:32:39.981Z,1.00
2023-04-02T07:33:19.146Z,1.10
2023-04-02T07:33:54.898Z,1.30
2023-04-02T07:34:28.332Z,1.10
2023-04-02T07:35:01.772Z,1.10
2023-04-02T07:35:35.348Z,1.20
2023-04-02T07:36:17.718Z,1.20
2023-04-02T07:36:51.731Z,1.10
2023-04-02T07:37:25.164Z,1.20
2023-04-02T07:37:58.874Z,1.10
2023-04-02T07:38:32.268Z,1.10
2023-04-02T07:39:05.795Z,1.00
2023-04-02T07:39:40.685Z,1.40
2023-04-02T07:40:22.113Z,1.20
2023-04-02T07:40:55.474Z,1.00
2023-04-02T07:41:28.924Z,1.00
2023-04-02T07:42:02.555Z,1.00
2023-04-02T07:42:36.426Z,1.30
2023-04-02T07:43:09.972Z,1.20
2023-04-02T07:43:43.924Z,1.20
2023-04-02T07:44:17.522Z,1.00
2023-04-02T07:44:51.504Z,1.10
2023-04-02T07:45:25.053Z,1.10
2023-04-02T07:46:01.116Z,1.20
2023-04-02T07:46:34.631Z,1.30
2023-04-02T07:47:10.584Z,1.20
2023-04-02T07:47:44.320Z,1.10
2023-04-02T07:48:17.671Z,1.20
2023-04-02T07:48:51.032Z,1.30
2023-04-02T07:49:24.594Z,1.20
2023-04-02T07:49:58.344Z,1.10
2023-04-02T07:50:31.702Z,1.00
2023-04-02T07:51:06.241Z,1.20
2023-04-02T07:51:39.608Z,1.20
2023-04-02T07:52:13.163Z,1.20
2023-04-02T07:52:46.805Z,1.10
2023-04-02T07:53:38.948Z,1.00
2023-04-02T07:54:13.205Z,1.10
2023-04-02T07:54:46.691Z,1.20
2023-04-02T07:55:20.122Z,1.00
2023-04-02T07:55:54.263Z,1.00
2023-04-02T07:56:28.889Z,1.20
2023-04-02T07:57:02.316Z,1.00
2023-04-02T07:57:48.693Z,1.00
2023-04-02T07:58:22.530Z,1.00
2023-04-02T07:58:56.523Z,0.90
2023-04-02T07:59:29.954Z,1.00
2023-04-02T08:00:04.988Z,1.00
2023-04-02T08:00:45.797Z,1.10
2023-04-02T08:01:26.003Z,1.00
2023-04-02T08:01:59.914Z,0.80
2023-04-02T08:02:33.613Z,0.90
2023-04-02T08:03:07.366Z,0.90
2023-04-02T08:03:42.761Z,1.00
2023-04-02T08:04:19.113Z,0.90
2023-04-02T08:04:52.761Z,0.80
2023-04-02T08:05:26.696Z,0.90
2023-04-02T08:06:00.550Z,0.80
2023-04-02T08:06:33.927Z,1.00
2023-04-02T08:07:07.641Z,1.10
2023-04-02T08:07:44.540Z,0.80
2023-04-02T08:08:18.087Z,0.90
2023-04-02T08:08:51.492Z,0.90
2023-04-02T08:09:24.953Z,1.00
2023-04-02T08:09:58.762Z,1.00
2023-04-02T08:10:32.339Z,0.90
2023-04-02T08:11:06.289Z,0.70
2023-04-02T08:11:40.431Z,0.80
2023-04-02T08:12:14.718Z,0.80
2023-04-02T08:12:48.218Z,0.80
2023-04-02T08:13:21.784Z,0.90
2023-04-02T08:13:55.624Z,0.80
2023-04-02T08:14:28.991Z,0.80
2023-04-02T08:15:03.393Z,0.80
2023-04-02T08:15:37.415Z,0.70
2023-04-02T08:16:11.364Z,0.80
2023-04-02T08:16:44.823Z,0.80
2023-04-02T08:17:18.450Z,0.60
2023-04-02T08:17:51.949Z,0.70
2023-04-02T08:18:25.775Z,0.80
2023-04-02T08:18:59.271Z,0.70
2023-04-02T08:19:36.938Z,0.80
2023-04-02T08:20:20.366Z,0.70
2023-04-02T08:20:53.669Z,0.80
2023-04-02T08:21:30.328Z,0.70
2023-04-02T08:22:03.716Z,0.70
2023-04-02T08:22:37.321Z,0.70
2023-04-02T08:23:18.288Z,1.20
2023-04-02T08:23:51.919Z,0.70
2023-04-02T08:24:25.737Z,0.80
2023-04-02T08:24:59.268Z,0.80
2023-04-02T08:25:33.245Z,0.70
2023-04-02T08:26:07.572Z,0.60
2023-04-02T08:26:41.970Z,0.60
2023-04-02T08:27:16.327Z,0.60
2023-04-02T08:27:50.136Z,0.70
2023-04-02T08:28:24.261Z,0.70
2023-04-02T08:28:59.274Z,0.80
2023-04-02T08:29:32.705Z,0.70
2023-04-02T08:30:08.490Z,0.70
2023-04-02T08:30:42.117Z,0.70
2023-04-02T08:31:17.416Z,0.70
2023-04-02T08:31:51.292Z,0.70
2023-04-02T08:32:26.657Z,0.70
2023-04-02T08:33:00.066Z,0.70
2023-04-02T08:33:33.662Z,0.70
2023-04-02T08:34:07.040Z,0.80
2023-04-02T08:34:40.683Z,0.60
2023-04-02T08:35:17.066Z,0.60
2023-04-02T08:35:51.339Z,0.60
2023-04-02T08:36:34.730Z,0.60
2023-04-02T08:37:11.608Z,0.70
2023-04-02T08:37:45.425Z,0.80
2023-04-02T08:38:21.770Z,0.80
2023-04-02T08:38:55.241Z,0.80
2023-04-02T08:39:33.185Z,0.70
2023-04-02T08:40:07.714Z,0.70
2023-04-02T08:40:44.361Z,0.80
2023-04-02T08:41:28.001Z,0.70
2023-04-02T08:42:20.847Z,0.70
2023-04-02T08:43:06.111Z,0.60
2023-04-02T08:43:40.965Z,0.70
2023-04-02T08:44:32.572Z,0.90
2023-04-02T08:45:35.770Z,0.90
2023-04-02T08:46:17.064Z,0.60
2023-04-02T08:47:06.643Z,0.70
2023-04-02T08:47:44.463Z,0.70
2023-04-02T08:48:18.559Z,0.70
2023-04-02T08:48:58.271Z,0.60
2023-04-02T08:49:44.646Z,0.60
2023-04-02T08:50:29.391Z,0.80
2023-04-02T08:51:05.302Z,0.60
2023-04-02T08:51:38.875Z,0.60
2023-04-02T08:52:29.083Z,0.60
2023-04-02T08:53:07.209Z,0.70
2023-04-02T08:53:42.153Z,0.60
2023-04-02T08:54:22.514Z,0.60
2023-04-02T08:54:58.243Z,0.60
2023-04-02T08:56:08.281Z,0.70
2023-04-02T08:56:52.195Z,0.50
2023-04-02T08:58:02.039Z,0.60
2023-04-02T08:58:48.739Z,0.60
2023-04-02T08:59:33.544Z,0.70
2023-04-02T09:00:30.156Z,0.60
2023-04-02T09:01:06.661Z,0.60
2023-04-02T09:01:48.991Z,0.70
2023-04-02T09:02:28.435Z,0.50
2023-04-02T09:03:16.330Z,0.60
2023-04-02T09:03:54.292Z,0.70
2023-04-02T09:04:28.692Z,0.70
2023-04-02T09:05:06.536Z,0.60
2023-04-02T09:05:43.542Z,0.60
2023-04-02T09:06:20.652Z,0.60
2023-04-02T09:06:56.907Z,0.60
2023-04-02T09:07:33.335Z,0.60
2023-04-02T09:08:18.989Z,0.70
2023-04-02T09:08:54.095Z,0.50
2023-04-02T09:09:28.112Z,0.60
2023-04-02T09:10:01.941Z,0.70
2023-04-02T09:10:45.767Z,0.70
2023-04-02T09:11:21.954Z,0.60
2023-04-02T09:12:04.440Z,0.60
2023-04-02T09:12:39.273Z,0.80
2023-04-02T09:13:23.973Z,0.60
2023-04-02T09:14:00.412Z,0.80
2023-04-02T09:14:45.461Z,0.60
2023-04-02T09:15:48.239Z,0.70
2023-04-02T09:16:36.369Z,0.70
2023-04-02T09:17:36.903Z,0.60
2023-04-02T09:18:19.468Z,0.80
2023-04-02T09:18:54.334Z,0.80
2023-04-02T09:19:38.713Z,0.80
2023-04-02T09:20:21.672Z,0.80
2023-04-02T09:20:55.144Z,0.70
2023-04-02T09:21:31.696Z,0.90
2023-04-02T09:22:20.679Z,0.70
2023-04-02T09:22:55.223Z,0.80
2023-04-02T09:23:28.821Z,0.60
2023-04-02T09:24:03.979Z,0.70
2023-04-02T09:24:38.476Z,0.70
2023-04-02T09:25:34.385Z,0.70
2023-04-02T09:26:24.608Z,0.70
2023-04-02T09:26:58.094Z,0.90
2023-04-02T09:27:34.153Z,0.90
2023-04-02T09:28:11.780Z,0.80
2023-04-02T09:28:45.281Z,0.70
2023-04-02T09:29:41.794Z,0.70
2023-04-02T09:30:59.247Z,0.70
2023-04-02T09:31:47.467Z,0.80
2023-04-02T09:32:48.898Z,0.70
2023-04-02T09:33:51.021Z,0.80
2023-04-02T09:34:36.336Z,0.80
2023-04-02T09:35:25.619Z,0.70
2023-04-02T09:37:14.723Z,0.70
2023-04-02T09:37:48.418Z,0.90
2023-04-02T09:38:31.802Z,0.80
2023-04-02T09:39:18.748Z,0.80
2023-04-02T09:39:52.256Z,0.80